Terminal Aerodrome Forecast
Issued by NWS Detroit/Pontiac, MI

Home | Current Version | Previous Version | Text Only | Print | Product List | Glossary On
Versions: 1 2 3 4 5 6 7 8 9 10 11 12 13 14 15 16 17 18 19 20 21 22 23 24 25 26
343
FTUS43 KDTX 181120
TAFDTW
TAF
KDTW 181120Z 1812/1918 19006KT 3SM BR OVC005
     FM181700 05004KT 2SM SHRA BR OVC004
      TEMPO 1818/1821 1SM +SHRA BR
     FM182100 36018G32KT P6SM -SHRA BKN012 BKN022
     FM190000 35024G36KT P6SM -SHRA BKN025 OVC050
     FM190300 33016G25KT P6SM BKN025
     FM190900 31014G22KT P6SM BKN030=

USA.gov is the U.S. government's official web portal to all federal, state and local government web resources and services.